Flight Track Log - Related Links

Times and Time Zones

All times are in EDT time to prevent confusion due to time zone crossing. See the RPA3275 flight status page for this flight to view local times or setup timezone preferences in your user account.

Time Position Orientation Groundspeed Altitude Reporting Facility
EDT Latitude Longitude Course Direction KTS MPH feet Rate Location/Type
Wed 07:04:47 AM 42.7611 -73.8061 220° Southwest 153 176 1,200  Level Boston Center
Wed 07:05:05 AM 42.7736 -73.8092 350° North 149 171 2,100 2,083 Climbing Boston Center
Wed 07:05:59 AM 42.7789 -73.8769 276° West 234 269 3,700 2,737 Climbing Boston Center
Wed 07:06:59 AM 42.7736 -73.9675 265° West 264 304 7,300 3,550 Climbing Boston Center
Wed 07:07:00 AM 42.7333 -74.1629 270° West  Level FlightAware Approximate
Wed 07:07:59 AM 42.7658 -74.0692 264° West 264 304 10,800  Level Boston Center
Wed 07:08:00 AM 42.7333 -74.2839 270° West  Level FlightAware Approximate
Wed 07:08:59 AM 42.7561 -74.1733 263° West 281 323 13,400  Level Boston Center
Wed 07:09:00 AM 42.6802 -74.3745 220° Southwest  Level FlightAware Approximate
Wed 07:09:59 AM 42.7153 -74.2572 236° Southwest 301 346 15,900  Level Boston Center
Wed 07:10:59 AM 42.6469 -74.3483 224° Southwest 313 360 16,100 100 Climbing Boston Center
Wed 07:11:59 AM 42.5894 -74.4197 222° Southwest 313 360 16,100  Level Boston Center
Wed 07:12:59 AM 42.5211 -74.5106 224° Southwest 313 360 16,100  Level Boston Center
Wed 07:13:59 AM 42.4633 -74.5875 225° Southwest 313 360 16,100 -34 Level Boston Center
Wed 07:15:54 AM 42.3461 -74.7408 224° Southwest 318 366 16,000 -34 Descending New York Center
Wed 07:16:54 AM 42.2808 -74.8236 223° Southwest 318 366 16,000  Level New York Center
Wed 07:17:52 AM 42.2197 -74.9067 225° Southwest 318 366 16,000  Level New York Center
Wed 07:18:52 AM 42.1419 -74.9886 218° Southwest 318 366 16,000  Level New York Center
Wed 07:19:53 AM 42.0733 -75.0483 213° Southwest 331 381 16,000  Level New York Center
Wed 07:20:52 AM 41.9897 -75.1156 211° Southwest 337 388 16,000  Level New York Center
Wed 07:21:53 AM 41.9122 -75.1800 212° Southwest 332 382 16,000  Level New York Center
Wed 07:22:52 AM 41.8328 -75.2444 211° Southwest 332 382 16,000  Level New York Center
Wed 07:23:53 AM 41.7619 -75.3008 211° Southwest 332 382 16,000  Level New York Center
Wed 07:24:54 AM 41.6847 -75.3622 211° Southwest 332 382 16,000 -99 Level New York Center
Wed 07:25:54 AM 41.5986 -75.4311 211° Southwest 332 382 15,800 -950 Descending New York Center
Wed 07:26:54 AM 41.5192 -75.4950 211° Southwest 332 382 14,100 -1,692 Descending New York Center
Wed 07:27:51 AM 41.4439 -75.5561 211° Southwest 332 382 12,500 -1,068 Descending New York Center
Wed 07:28:52 AM 41.3750 -75.6092 210° Southwest 326 375 12,000 -248 Descending New York Center
Wed 07:29:52 AM 41.2889 -75.6775 211° Southwest 326 375 12,000 -350 Level New York Center
Wed 07:30:52 AM 41.2014 -75.6794 181° South 313 360 11,300 -843 Descending New York Center
Wed 07:31:53 AM 41.1047 -75.6478 166° South 342 394 10,300 -645 Descending New York Center
Wed 07:32:53 AM 41.0081 -75.6161 166° South 362 417 10,000 -150 Descending New York Center
Wed 07:33:53 AM 40.9239 -75.5881 166° South 362 417 10,000  Level New York Center
Wed 07:34:53 AM 40.8292 -75.5567 166° South 356 410 10,000  Level New York Center
Wed 07:35:54 AM 40.7286 -75.5222 165° South 350 403 10,000  Level New York Center
Wed 07:36:51 AM 40.6442 -75.4944 166° South 334 384 10,000  Level New York Center
Wed 07:37:51 AM 40.5619 -75.4697 167° South 314 361 10,000  Level New York Center
Wed 07:38:52 AM 40.4878 -75.4456 166° South 314 361 10,000 -344 Level New York Center
Wed 07:39:53 AM 40.4019 -75.4042 160° South 314 361 9,300 -992 Descending New York Center
Wed 07:40:53 AM 40.3264 -75.3611 157° South 309 356 8,000 -814 Descending New York Center
Wed 07:41:51 AM 40.2592 -75.3214 156° South 300 345 7,700 -555 Descending New York Center
Wed 07:42:52 AM 40.1817 -75.2808 158° South 295 339 6,900 -836 Descending New York Center
Wed 07:43:53 AM 40.1167 -75.2306 149° Southeast 285 328 6,000 -732 Descending New York Center
Wed 07:44:14 AM 40.1000 -75.1833 115° Southeast 286 329 5,900 -74 Descending Philadelphia TRACON
Wed 07:45:14 AM 40.0500 -75.1333 143° Southeast 211 243 5,900  Level Philadelphia TRACON
Wed 07:46:20 AM 40.0167 -75.0667 123° Southeast 209 241 5,900 -500 Level Philadelphia TRACON
Wed 07:47:14 AM 40.0167 -75.0167 90° East 193 222 4,900 -1,158 Descending Philadelphia TRACON
Wed 07:48:14 AM 39.9667 -75.0000 166° South 185 213 3,700 -1,150 Descending Philadelphia TRACON
Wed 07:49:14 AM 39.9333 -75.0333 217° Southwest 185 213 2,600 -1,100 Descending Philadelphia TRACON

Login

Don't have an account? Register now (free) for customized features, flight alerts, and more!